sensor_id;sensor_type;location;lat;lon;timestamp;P1;durP1;ratioP1;P2;durP2;ratioP2
51594;SDS011;37677;53.254;6.594;2023-05-10T00:02:06;14.07;;;12.88;;
51594;SDS011;37677;53.254;6.594;2023-05-10T00:04:32;15.55;;;14.25;;
51594;SDS011;37677;53.254;6.594;2023-05-10T00:06:58;15.82;;;14.10;;
51594;SDS011;37677;53.254;6.594;2023-05-10T00:09:24;14.20;;;13.10;;
51594;SDS011;37677;53.254;6.594;2023-05-10T00:11:49;14.95;;;13.65;;
51594;SDS011;37677;53.254;6.594;2023-05-10T00:14:15;14.05;;;12.75;;
51594;SDS011;37677;53.254;6.594;2023-05-10T00:16:41;14.70;;;13.30;;
51594;SDS011;37677;53.254;6.594;2023-05-10T00:19:07;16.48;;;14.85;;
51594;SDS011;37677;53.254;6.594;2023-05-10T00:21:33;13.85;;;12.65;;
51594;SDS011;37677;53.254;6.594;2023-05-10T00:23:58;14.20;;;12.98;;
51594;SDS011;37677;53.254;6.594;2023-05-10T00:26:25;16.08;;;14.40;;
51594;SDS011;37677;53.254;6.594;2023-05-10T00:28:50;13.50;;;12.35;;
51594;SDS011;37677;53.254;6.594;2023-05-10T00:31:16;15.02;;;13.73;;
51594;SDS011;37677;53.254;6.594;2023-05-10T00:33:42;15.85;;;14.18;;
51594;SDS011;37677;53.254;6.594;2023-05-10T00:36:07;12.32;;;11.20;;
51594;SDS011;37677;53.254;6.594;2023-05-10T00:38:33;11.35;;;10.35;;
51594;SDS011;37677;53.254;6.594;2023-05-10T00:40:59;11.85;;;10.75;;
51594;SDS011;37677;53.254;6.594;2023-05-10T00:43:25;11.45;;;10.45;;
51594;SDS011;37677;53.254;6.594;2023-05-10T00:45:50;11.95;;;10.95;;
51594;SDS011;37677;53.254;6.594;2023-05-10T00:48:17;12.32;;;11.13;;
51594;SDS011;37677;53.254;6.594;2023-05-10T00:50:43;11.95;;;10.90;;
51594;SDS011;37677;53.254;6.594;2023-05-10T00:53:09;12.00;;;10.90;;
51594;SDS011;37677;53.254;6.594;2023-05-10T00:55:35;10.93;;;9.93;;
51594;SDS011;37677;53.254;6.594;2023-05-10T00:58:02;10.90;;;9.80;;
51594;SDS011;37677;53.254;6.594;2023-05-10T01:00:28;11.25;;;10.25;;
51594;SDS011;37677;53.254;6.594;2023-05-10T01:02:54;11.95;;;10.85;;
51594;SDS011;37677;53.254;6.594;2023-05-10T01:05:20;11.40;;;10.20;;
51594;SDS011;37677;53.254;6.594;2023-05-10T01:07:46;10.48;;;9.48;;
51594;SDS011;37677;53.254;6.594;2023-05-10T01:10:12;9.35;;;8.65;;
51594;SDS011;37677;53.254;6.594;2023-05-10T01:12:39;9.05;;;8.25;;
51594;SDS011;37677;53.254;6.594;2023-05-10T01:15:07;11.63;;;9.13;;
51594;SDS011;37677;53.254;6.594;2023-05-10T01:17:36;8.82;;;8.07;;
51594;SDS011;37677;53.254;6.594;2023-05-10T01:20:04;9.50;;;8.70;;
51594;SDS011;37677;53.254;6.594;2023-05-10T01:28:35;10.90;;;9.85;;
51594;SDS011;37677;53.254;6.594;2023-05-10T01:31:24;9.52;;;8.68;;
51594;SDS011;37677;53.254;6.594;2023-05-10T01:36:41;12.30;;;10.55;;
51594;SDS011;37677;53.254;6.594;2023-05-10T01:41:49;9.70;;;8.82;;
51594;SDS011;37677;53.254;6.594;2023-05-10T01:47:14;12.80;;;11.55;;
51594;SDS011;37677;53.254;6.594;2023-05-10T01:49:45;10.70;;;9.70;;
51594;SDS011;37677;53.254;6.594;2023-05-10T01:52:16;16.48;;;12.93;;
51594;SDS011;37677;53.254;6.594;2023-05-10T01:54:46;12.15;;;10.95;;
51594;SDS011;37677;53.254;6.594;2023-05-10T01:57:19;13.32;;;12.02;;
51594;SDS011;37677;53.254;6.594;2023-05-10T01:59:47;12.00;;;10.82;;
51594;SDS011;37677;53.254;6.594;2023-05-10T02:02:15;13.70;;;12.00;;
51594;SDS011;37677;53.254;6.594;2023-05-10T02:04:44;13.07;;;11.88;;
51594;SDS011;37677;53.254;6.594;2023-05-10T02:07:12;13.20;;;11.90;;
51594;SDS011;37677;53.254;6.594;2023-05-10T02:09:39;11.85;;;10.73;;
51594;SDS011;37677;53.254;6.594;2023-05-10T02:12:09;12.98;;;11.73;;
51594;SDS011;37677;53.254;6.594;2023-05-10T02:14:37;12.73;;;11.60;;
51594;SDS011;37677;53.254;6.594;2023-05-10T02:17:05;12.27;;;11.25;;
51594;SDS011;37677;53.254;6.594;2023-05-10T02:19:34;10.77;;;9.77;;
51594;SDS011;37677;53.254;6.594;2023-05-10T02:22:02;11.30;;;10.20;;
51594;SDS011;37677;53.254;6.594;2023-05-10T02:24:28;10.35;;;9.55;;
51594;SDS011;37677;53.254;6.594;2023-05-10T02:26:55;11.00;;;10.02;;
51594;SDS011;37677;53.254;6.594;2023-05-10T02:29:23;12.13;;;11.02;;
51594;SDS011;37677;53.254;6.594;2023-05-10T02:31:51;10.77;;;9.88;;
51594;SDS011;37677;53.254;6.594;2023-05-10T02:34:19;11.63;;;10.52;;
51594;SDS011;37677;53.254;6.594;2023-05-10T02:36:46;11.70;;;10.65;;
51594;SDS011;37677;53.254;6.594;2023-05-10T02:39:13;13.60;;;11.30;;
51594;SDS011;37677;53.254;6.594;2023-05-10T02:41:41;11.38;;;10.38;;
51594;SDS011;37677;53.254;6.594;2023-05-10T02:44:08;12.85;;;11.43;;
51594;SDS011;37677;53.254;6.594;2023-05-10T02:46:35;14.77;;;12.40;;
51594;SDS011;37677;53.254;6.594;2023-05-10T02:49:02;12.35;;;11.25;;
51594;SDS011;37677;53.254;6.594;2023-05-10T02:51:30;13.70;;;12.25;;
51594;SDS011;37677;53.254;6.594;2023-05-10T02:53:57;13.70;;;12.35;;
51594;SDS011;37677;53.254;6.594;2023-05-10T02:56:30;16.23;;;13.60;;
51594;SDS011;37677;53.254;6.594;2023-05-10T02:58:59;15.95;;;14.25;;
51594;SDS011;37677;53.254;6.594;2023-05-10T03:01:25;14.88;;;13.30;;
51594;SDS011;37677;53.254;6.594;2023-05-10T03:03:50;24.42;;;17.08;;
51594;SDS011;37677;53.254;6.594;2023-05-10T03:06:16;21.27;;;17.00;;
51594;SDS011;37677;53.254;6.594;2023-05-10T03:08:42;20.00;;;15.98;;
51594;SDS011;37677;53.254;6.594;2023-05-10T03:14:02;18.75;;;16.23;;
51594;SDS011;37677;53.254;6.594;2023-05-10T03:16:45;22.83;;;16.95;;
51594;SDS011;37677;53.254;6.594;2023-05-10T03:19:23;29.77;;;19.02;;
51594;SDS011;37677;53.254;6.594;2023-05-10T03:21:55;21.80;;;17.88;;
51594;SDS011;37677;53.254;6.594;2023-05-10T03:24:28;22.55;;;17.58;;
51594;SDS011;37677;53.254;6.594;2023-05-10T03:26:55;21.20;;;16.73;;
51594;SDS011;37677;53.254;6.594;2023-05-10T03:29:24;19.67;;;16.83;;
51594;SDS011;37677;53.254;6.594;2023-05-10T03:31:51;19.13;;;16.63;;
51594;SDS011;37677;53.254;6.594;2023-05-10T03:34:21;22.27;;;17.00;;
51594;SDS011;37677;53.254;6.594;2023-05-10T03:36:48;20.95;;;17.50;;
51594;SDS011;37677;53.254;6.594;2023-05-10T03:39:14;21.95;;;18.33;;
51594;SDS011;37677;53.254;6.594;2023-05-10T03:41:40;22.67;;;18.70;;
51594;SDS011;37677;53.254;6.594;2023-05-10T03:44:06;29.58;;;20.67;;
51594;SDS011;37677;53.254;6.594;2023-05-10T03:46:32;36.38;;;23.00;;
51594;SDS011;37677;53.254;6.594;2023-05-10T03:48:57;40.35;;;24.63;;
51594;SDS011;37677;53.254;6.594;2023-05-10T03:51:23;27.35;;;20.90;;
51594;SDS011;37677;53.254;6.594;2023-05-10T03:53:53;24.55;;;18.85;;
51594;SDS011;37677;53.254;6.594;2023-05-10T03:56:19;43.15;;;23.95;;
51594;SDS011;37677;53.254;6.594;2023-05-10T03:58:45;24.75;;;18.88;;
51594;SDS011;37677;53.254;6.594;2023-05-10T04:01:11;23.90;;;17.45;;
51594;SDS011;37677;53.254;6.594;2023-05-10T04:03:37;22.52;;;16.55;;
51594;SDS011;37677;53.254;6.594;2023-05-10T04:06:03;21.63;;;16.17;;
51594;SDS011;37677;53.254;6.594;2023-05-10T04:08:30;14.18;;;12.52;;
51594;SDS011;37677;53.254;6.594;2023-05-10T04:11:06;18.10;;;14.30;;
51594;SDS011;37677;53.254;6.594;2023-05-10T04:13:36;22.60;;;15.32;;
51594;SDS011;37677;53.254;6.594;2023-05-10T04:16:03;21.40;;;15.00;;
51594;SDS011;37677;53.254;6.594;2023-05-10T04:18:29;19.63;;;14.10;;
51594;SDS011;37677;53.254;6.594;2023-05-10T04:20:55;15.57;;;12.70;;
51594;SDS011;37677;53.254;6.594;2023-05-10T04:23:21;16.98;;;12.95;;
51594;SDS011;37677;53.254;6.594;2023-05-10T04:25:46;15.63;;;13.15;;
51594;SDS011;37677;53.254;6.594;2023-05-10T04:28:12;17.38;;;14.13;;
51594;SDS011;37677;53.254;6.594;2023-05-10T04:30:38;15.25;;;11.70;;
51594;SDS011;37677;53.254;6.594;2023-05-10T04:33:03;15.95;;;13.48;;
51594;SDS011;37677;53.254;6.594;2023-05-10T04:35:29;12.43;;;10.50;;
51594;SDS011;37677;53.254;6.594;2023-05-10T04:37:55;14.88;;;12.90;;
51594;SDS011;37677;53.254;6.594;2023-05-10T04:40:21;15.05;;;11.63;;
51594;SDS011;37677;53.254;6.594;2023-05-10T04:42:46;12.68;;;10.45;;
51594;SDS011;37677;53.254;6.594;2023-05-10T04:45:12;14.25;;;11.35;;
51594;SDS011;37677;53.254;6.594;2023-05-10T04:47:39;10.38;;;9.40;;
51594;SDS011;37677;53.254;6.594;2023-05-10T04:50:05;15.38;;;11.82;;
51594;SDS011;37677;53.254;6.594;2023-05-10T04:52:32;13.50;;;10.88;;
51594;SDS011;37677;53.254;6.594;2023-05-10T04:54:58;13.02;;;10.60;;
51594;SDS011;37677;53.254;6.594;2023-05-10T04:57:23;12.52;;;10.55;;
51594;SDS011;37677;53.254;6.594;2023-05-10T04:59:49;13.82;;;11.05;;
51594;SDS011;37677;53.254;6.594;2023-05-10T05:02:15;12.45;;;11.13;;
51594;SDS011;37677;53.254;6.594;2023-05-10T05:04:41;11.48;;;10.15;;
51594;SDS011;37677;53.254;6.594;2023-05-10T05:07:07;11.55;;;10.50;;
51594;SDS011;37677;53.254;6.594;2023-05-10T05:09:32;10.27;;;9.23;;
51594;SDS011;37677;53.254;6.594;2023-05-10T05:11:58;10.70;;;9.73;;
51594;SDS011;37677;53.254;6.594;2023-05-10T05:14:24;10.48;;;9.00;;
51594;SDS011;37677;53.254;6.594;2023-05-10T05:16:52;13.18;;;10.98;;
51594;SDS011;37677;53.254;6.594;2023-05-10T05:19:18;12.30;;;11.07;;
51594;SDS011;37677;53.254;6.594;2023-05-10T05:21:44;10.50;;;8.95;;
51594;SDS011;37677;53.254;6.594;2023-05-10T05:24:10;11.90;;;10.57;;
51594;SDS011;37677;53.254;6.594;2023-05-10T05:26:37;12.10;;;10.13;;
51594;SDS011;37677;53.254;6.594;2023-05-10T05:29:03;9.20;;;8.30;;
51594;SDS011;37677;53.254;6.594;2023-05-10T05:31:29;19.15;;;11.85;;
51594;SDS011;37677;53.254;6.594;2023-05-10T05:33:54;20.55;;;13.18;;
51594;SDS011;37677;53.254;6.594;2023-05-10T05:36:20;10.80;;;9.63;;
51594;SDS011;37677;53.254;6.594;2023-05-10T05:38:46;12.60;;;9.85;;
51594;SDS011;37677;53.254;6.594;2023-05-10T05:41:12;9.45;;;8.27;;
51594;SDS011;37677;53.254;6.594;2023-05-10T05:43:38;9.02;;;7.95;;
51594;SDS011;37677;53.254;6.594;2023-05-10T05:46:04;17.08;;;11.60;;
51594;SDS011;37677;53.254;6.594;2023-05-10T05:48:30;12.68;;;10.32;;
51594;SDS011;37677;53.254;6.594;2023-05-10T05:50:56;8.57;;;7.75;;
51594;SDS011;37677;53.254;6.594;2023-05-10T05:53:22;14.07;;;9.80;;
51594;SDS011;37677;53.254;6.594;2023-05-10T05:55:55;11.95;;;9.70;;
51594;SDS011;37677;53.254;6.594;2023-05-10T05:58:22;15.40;;;9.65;;
51594;SDS011;37677;53.254;6.594;2023-05-10T06:00:49;14.35;;;9.60;;
51594;SDS011;37677;53.254;6.594;2023-05-10T06:03:15;11.20;;;7.63;;
51594;SDS011;37677;53.254;6.594;2023-05-10T06:05:40;4.70;;;4.20;;
51594;SDS011;37677;53.254;6.594;2023-05-10T06:08:06;3.10;;;2.80;;
51594;SDS011;37677;53.254;6.594;2023-05-10T06:10:32;5.97;;;3.38;;
51594;SDS011;37677;53.254;6.594;2023-05-10T06:12:58;2.67;;;2.20;;
51594;SDS011;37677;53.254;6.594;2023-05-10T06:15:23;1.52;;;1.42;;
51594;SDS011;37677;53.254;6.594;2023-05-10T06:17:50;3.28;;;2.55;;
51594;SDS011;37677;53.254;6.594;2023-05-10T06:20:16;1.90;;;1.70;;
51594;SDS011;37677;53.254;6.594;2023-05-10T06:22:42;2.67;;;2.42;;
51594;SDS011;37677;53.254;6.594;2023-05-10T06:25:07;4.25;;;3.00;;
51594;SDS011;37677;53.254;6.594;2023-05-10T06:27:34;2.78;;;2.53;;
51594;SDS011;37677;53.254;6.594;2023-05-10T06:29:59;7.15;;;3.92;;
51594;SDS011;37677;53.254;6.594;2023-05-10T06:32:25;4.22;;;3.72;;
51594;SDS011;37677;53.254;6.594;2023-05-10T06:34:51;5.43;;;4.72;;
51594;SDS011;37677;53.254;6.594;2023-05-10T06:37:17;8.27;;;4.65;;
51594;SDS011;37677;53.254;6.594;2023-05-10T06:39:43;7.07;;;6.30;;
51594;SDS011;37677;53.254;6.594;2023-05-10T06:42:08;7.95;;;6.65;;
51594;SDS011;37677;53.254;6.594;2023-05-10T06:44:34;12.60;;;9.27;;
51594;SDS011;37677;53.254;6.594;2023-05-10T06:47:00;9.65;;;8.73;;
51594;SDS011;37677;53.254;6.594;2023-05-10T06:49:25;13.27;;;10.77;;
51594;SDS011;37677;53.254;6.594;2023-05-10T06:51:51;16.13;;;13.85;;
51594;SDS011;37677;53.254;6.594;2023-05-10T06:54:16;18.67;;;15.75;;
51594;SDS011;37677;53.254;6.594;2023-05-10T06:56:42;21.15;;;18.10;;
51594;SDS011;37677;53.254;6.594;2023-05-10T06:59:08;40.47;;;23.75;;
51594;SDS011;37677;53.254;6.594;2023-05-10T07:01:34;23.85;;;21.02;;
51594;SDS011;37677;53.254;6.594;2023-05-10T07:04:00;32.40;;;24.08;;
51594;SDS011;37677;53.254;6.594;2023-05-10T07:06:25;32.35;;;22.63;;
51594;SDS011;37677;53.254;6.594;2023-05-10T07:08:52;32.38;;;23.35;;
51594;SDS011;37677;53.254;6.594;2023-05-10T07:11:18;50.38;;;28.42;;
51594;SDS011;37677;53.254;6.594;2023-05-10T07:13:43;24.80;;;19.55;;
51594;SDS011;37677;53.254;6.594;2023-05-10T07:16:11;25.75;;;18.92;;
51594;SDS011;37677;53.254;6.594;2023-05-10T07:18:36;14.93;;;12.85;;
51594;SDS011;37677;53.254;6.594;2023-05-10T07:21:02;20.38;;;16.55;;
51594;SDS011;37677;53.254;6.594;2023-05-10T07:23:28;30.30;;;18.55;;
51594;SDS011;37677;53.254;6.594;2023-05-10T07:25:54;22.55;;;16.05;;
51594;SDS011;37677;53.254;6.594;2023-05-10T07:28:22;16.67;;;13.48;;
51594;SDS011;37677;53.254;6.594;2023-05-10T07:30:48;13.25;;;10.60;;
51594;SDS011;37677;53.254;6.594;2023-05-10T07:33:14;18.38;;;12.82;;
51594;SDS011;37677;53.254;6.594;2023-05-10T07:35:40;9.75;;;8.05;;
51594;SDS011;37677;53.254;6.594;2023-05-10T07:38:07;6.88;;;6.28;;
51594;SDS011;37677;53.254;6.594;2023-05-10T07:40:32;7.63;;;6.88;;
51594;SDS011;37677;53.254;6.594;2023-05-10T07:42:58;9.68;;;6.88;;
51594;SDS011;37677;53.254;6.594;2023-05-10T07:45:26;6.32;;;5.72;;
51594;SDS011;37677;53.254;6.594;2023-05-10T07:47:52;5.72;;;5.15;;
51594;SDS011;37677;53.254;6.594;2023-05-10T07:50:18;6.72;;;5.32;;
51594;SDS011;37677;53.254;6.594;2023-05-10T07:52:43;13.70;;;5.88;;
51594;SDS011;37677;53.254;6.594;2023-05-10T07:55:09;6.30;;;5.40;;
51594;SDS011;37677;53.254;6.594;2023-05-10T07:57:35;6.47;;;4.25;;
51594;SDS011;37677;53.254;6.594;2023-05-10T08:00:01;5.60;;;4.85;;
51594;SDS011;37677;53.254;6.594;2023-05-10T08:02:27;4.60;;;4.20;;
51594;SDS011;37677;53.254;6.594;2023-05-10T08:04:53;5.57;;;5.05;;
51594;SDS011;37677;53.254;6.594;2023-05-10T08:07:20;8.10;;;6.10;;
51594;SDS011;37677;53.254;6.594;2023-05-10T08:09:46;8.32;;;6.05;;
51594;SDS011;37677;53.254;6.594;2023-05-10T08:12:12;6.65;;;6.05;;
51594;SDS011;37677;53.254;6.594;2023-05-10T08:14:37;10.02;;;7.15;;
51594;SDS011;37677;53.254;6.594;2023-05-10T08:17:03;8.60;;;7.65;;
51594;SDS011;37677;53.254;6.594;2023-05-10T08:19:29;5.85;;;4.57;;
51594;SDS011;37677;53.254;6.594;2023-05-10T08:21:54;4.95;;;4.55;;
51594;SDS011;37677;53.254;6.594;2023-05-10T08:24:21;8.57;;;7.30;;
51594;SDS011;37677;53.254;6.594;2023-05-10T08:26:47;6.95;;;6.28;;
51594;SDS011;37677;53.254;6.594;2023-05-10T08:29:13;7.65;;;6.00;;
51594;SDS011;37677;53.254;6.594;2023-05-10T08:31:39;6.22;;;5.57;;
51594;SDS011;37677;53.254;6.594;2023-05-10T08:34:04;7.47;;;6.78;;
51594;SDS011;37677;53.254;6.594;2023-05-10T08:36:30;5.28;;;4.88;;
51594;SDS011;37677;53.254;6.594;2023-05-10T08:38:57;6.65;;;5.25;;
51594;SDS011;37677;53.254;6.594;2023-05-10T08:41:23;5.60;;;5.13;;
51594;SDS011;37677;53.254;6.594;2023-05-10T08:43:51;6.15;;;5.60;;
51594;SDS011;37677;53.254;6.594;2023-05-10T08:46:18;4.90;;;4.47;;
51594;SDS011;37677;53.254;6.594;2023-05-10T08:48:45;6.10;;;5.40;;
51594;SDS011;37677;53.254;6.594;2023-05-10T08:51:13;5.25;;;4.85;;
51594;SDS011;37677;53.254;6.594;2023-05-10T08:53:40;6.20;;;4.60;;
51594;SDS011;37677;53.254;6.594;2023-05-10T08:56:05;5.40;;;3.75;;
51594;SDS011;37677;53.254;6.594;2023-05-10T08:58:31;8.70;;;4.07;;
51594;SDS011;37677;53.254;6.594;2023-05-10T09:00:58;5.60;;;3.47;;
51594;SDS011;37677;53.254;6.594;2023-05-10T09:03:25;3.60;;;2.80;;
51594;SDS011;37677;53.254;6.594;2023-05-10T09:05:51;4.03;;;3.17;;
51594;SDS011;37677;53.254;6.594;2023-05-10T09:08:17;6.20;;;3.88;;
51594;SDS011;37677;53.254;6.594;2023-05-10T09:10:43;6.90;;;4.20;;
51594;SDS011;37677;53.254;6.594;2023-05-10T09:13:12;7.80;;;4.45;;
51594;SDS011;37677;53.254;6.594;2023-05-10T09:15:39;8.38;;;5.28;;
51594;SDS011;37677;53.254;6.594;2023-05-10T09:18:04;6.53;;;4.88;;
51594;SDS011;37677;53.254;6.594;2023-05-10T09:20:30;6.22;;;5.43;;
51594;SDS011;37677;53.254;6.594;2023-05-10T09:22:56;8.48;;;5.40;;
51594;SDS011;37677;53.254;6.594;2023-05-10T09:25:22;9.18;;;6.32;;
51594;SDS011;37677;53.254;6.594;2023-05-10T09:27:47;6.88;;;5.40;;
51594;SDS011;37677;53.254;6.594;2023-05-10T09:30:23;9.57;;;7.22;;
51594;SDS011;37677;53.254;6.594;2023-05-10T09:32:56;9.80;;;7.25;;
51594;SDS011;37677;53.254;6.594;2023-05-10T09:35:23;7.60;;;6.90;;
51594;SDS011;37677;53.254;6.594;2023-05-10T09:37:51;7.07;;;6.15;;
51594;SDS011;37677;53.254;6.594;2023-05-10T09:40:22;7.28;;;6.63;;
51594;SDS011;37677;53.254;6.594;2023-05-10T09:42:54;6.45;;;5.85;;
51594;SDS011;37677;53.254;6.594;2023-05-10T09:45:31;8.57;;;6.75;;
51594;SDS011;37677;53.254;6.594;2023-05-10T09:47:58;7.20;;;5.60;;
51594;SDS011;37677;53.254;6.594;2023-05-10T09:50:25;7.30;;;5.10;;
51594;SDS011;37677;53.254;6.594;2023-05-10T09:52:53;5.20;;;4.70;;
51594;SDS011;37677;53.254;6.594;2023-05-10T09:55:20;4.97;;;4.50;;
51594;SDS011;37677;53.254;6.594;2023-05-10T09:57:47;8.18;;;3.95;;
51594;SDS011;37677;53.254;6.594;2023-05-10T10:00:17;4.63;;;3.03;;
51594;SDS011;37677;53.254;6.594;2023-05-10T10:02:48;2.97;;;1.80;;
51594;SDS011;37677;53.254;6.594;2023-05-10T10:07:57;4.55;;;2.40;;
51594;SDS011;37677;53.254;6.594;2023-05-10T10:10:24;3.65;;;2.42;;
51594;SDS011;37677;53.254;6.594;2023-05-10T10:12:50;3.35;;;2.30;;
51594;SDS011;37677;53.254;6.594;2023-05-10T10:15:16;2.40;;;2.10;;
51594;SDS011;37677;53.254;6.594;2023-05-10T10:17:42;3.22;;;2.15;;
51594;SDS011;37677;53.254;6.594;2023-05-10T10:20:09;2.10;;;1.77;;
51594;SDS011;37677;53.254;6.594;2023-05-10T10:22:36;2.88;;;2.00;;
51594;SDS011;37677;53.254;6.594;2023-05-10T10:25:02;3.33;;;2.03;;
51594;SDS011;37677;53.254;6.594;2023-05-10T10:30:11;2.38;;;2.08;;
51594;SDS011;37677;53.254;6.594;2023-05-10T10:32:55;2.30;;;2.10;;
51594;SDS011;37677;53.254;6.594;2023-05-10T10:35:43;2.50;;;2.03;;
51594;SDS011;37677;53.254;6.594;2023-05-10T10:38:11;2.80;;;2.17;;
51594;SDS011;37677;53.254;6.594;2023-05-10T10:40:37;3.35;;;2.60;;
51594;SDS011;37677;53.254;6.594;2023-05-10T10:48:40;3.20;;;2.92;;
51594;SDS011;37677;53.254;6.594;2023-05-10T10:51:11;4.25;;;3.08;;
51594;SDS011;37677;53.254;6.594;2023-05-10T10:53:38;3.60;;;3.30;;
51594;SDS011;37677;53.254;6.594;2023-05-10T10:56:06;4.30;;;3.80;;
51594;SDS011;37677;53.254;6.594;2023-05-10T10:58:34;5.15;;;4.75;;
51594;SDS011;37677;53.254;6.594;2023-05-10T11:01:10;6.70;;;4.82;;
51594;SDS011;37677;53.254;6.594;2023-05-10T11:03:41;6.30;;;4.85;;
51594;SDS011;37677;53.254;6.594;2023-05-10T11:06:41;5.85;;;3.47;;
51594;SDS011;37677;53.254;6.594;2023-05-10T11:09:08;5.55;;;4.60;;
51594;SDS011;37677;53.254;6.594;2023-05-10T11:11:35;6.20;;;5.57;;
51594;SDS011;37677;53.254;6.594;2023-05-10T11:14:07;6.15;;;5.55;;
51594;SDS011;37677;53.254;6.594;2023-05-10T11:16:42;9.98;;;7.70;;
51594;SDS011;37677;53.254;6.594;2023-05-10T11:22:18;11.27;;;8.98;;
51594;SDS011;37677;53.254;6.594;2023-05-10T11:24:30;15.32;;;10.27;;
51594;SDS011;37677;53.254;6.594;2023-05-10T11:26:56;11.90;;;9.57;;
51594;SDS011;37677;53.254;6.594;2023-05-10T11:29:22;9.75;;;8.82;;
51594;SDS011;37677;53.254;6.594;2023-05-10T11:31:48;10.23;;;8.40;;
51594;SDS011;37677;53.254;6.594;2023-05-10T11:34:24;9.68;;;8.68;;
51594;SDS011;37677;53.254;6.594;2023-05-10T11:36:53;9.32;;;7.97;;
51594;SDS011;37677;53.254;6.594;2023-05-10T11:39:20;9.32;;;8.43;;
51594;SDS011;37677;53.254;6.594;2023-05-10T11:41:49;11.15;;;8.45;;
51594;SDS011;37677;53.254;6.594;2023-05-10T11:44:15;11.57;;;9.80;;
51594;SDS011;37677;53.254;6.594;2023-05-10T11:46:41;12.00;;;9.65;;
51594;SDS011;37677;53.254;6.594;2023-05-10T11:49:07;13.10;;;9.30;;
51594;SDS011;37677;53.254;6.594;2023-05-10T11:51:36;13.82;;;9.63;;
51594;SDS011;37677;53.254;6.594;2023-05-10T11:54:05;9.98;;;8.88;;
51594;SDS011;37677;53.254;6.594;2023-05-10T11:56:33;9.88;;;8.63;;
51594;SDS011;37677;53.254;6.594;2023-05-10T11:58:59;10.27;;;9.27;;
51594;SDS011;37677;53.254;6.594;2023-05-10T12:01:27;11.07;;;9.13;;
51594;SDS011;37677;53.254;6.594;2023-05-10T12:03:54;11.90;;;9.80;;
51594;SDS011;37677;53.254;6.594;2023-05-10T12:06:29;11.48;;;10.27;;
51594;SDS011;37677;53.254;6.594;2023-05-10T12:08:57;10.93;;;9.85;;
51594;SDS011;37677;53.254;6.594;2023-05-10T12:11:26;13.25;;;10.85;;
51594;SDS011;37677;53.254;6.594;2023-05-10T12:13:53;12.05;;;10.20;;
51594;SDS011;37677;53.254;6.594;2023-05-10T12:16:21;12.60;;;10.60;;
51594;SDS011;37677;53.254;6.594;2023-05-10T12:18:48;11.50;;;10.32;;
51594;SDS011;37677;53.254;6.594;2023-05-10T12:21:16;11.95;;;10.75;;
51594;SDS011;37677;53.254;6.594;2023-05-10T12:23:41;14.38;;;11.32;;
51594;SDS011;37677;53.254;6.594;2023-05-10T12:26:10;12.73;;;11.05;;
51594;SDS011;37677;53.254;6.594;2023-05-10T12:28:36;12.43;;;11.23;;
51594;SDS011;37677;53.254;6.594;2023-05-10T12:31:02;14.60;;;12.05;;
51594;SDS011;37677;53.254;6.594;2023-05-10T12:33:39;13.57;;;11.63;;
51594;SDS011;37677;53.254;6.594;2023-05-10T12:36:12;13.07;;;11.77;;
51594;SDS011;37677;53.254;6.594;2023-05-10T12:38:40;13.50;;;11.88;;
51594;SDS011;37677;53.254;6.594;2023-05-10T12:41:26;13.07;;;11.70;;
51594;SDS011;37677;53.254;6.594;2023-05-10T12:43:51;12.25;;;11.05;;
51594;SDS011;37677;53.254;6.594;2023-05-10T12:46:17;11.93;;;10.65;;
51594;SDS011;37677;53.254;6.594;2023-05-10T12:48:44;12.63;;;11.43;;
51594;SDS011;37677;53.254;6.594;2023-05-10T12:51:11;11.98;;;10.75;;
51594;SDS011;37677;53.254;6.594;2023-05-10T12:53:38;13.32;;;11.73;;
51594;SDS011;37677;53.254;6.594;2023-05-10T12:56:04;11.93;;;10.60;;
51594;SDS011;37677;53.254;6.594;2023-05-10T12:58:30;11.88;;;10.73;;
51594;SDS011;37677;53.254;6.594;2023-05-10T13:00:57;13.48;;;9.95;;
51594;SDS011;37677;53.254;6.594;2023-05-10T13:03:23;10.88;;;9.88;;
51594;SDS011;37677;53.254;6.594;2023-05-10T13:05:49;10.13;;;9.13;;
51594;SDS011;37677;53.254;6.594;2023-05-10T13:08:15;11.23;;;9.57;;
51594;SDS011;37677;53.254;6.594;2023-05-10T13:10:40;9.85;;;8.85;;
51594;SDS011;37677;53.254;6.594;2023-05-10T13:13:06;10.30;;;9.10;;
51594;SDS011;37677;53.254;6.594;2023-05-10T13:15:33;9.70;;;8.70;;
51594;SDS011;37677;53.254;6.594;2023-05-10T13:17:59;10.05;;;8.70;;
51594;SDS011;37677;53.254;6.594;2023-05-10T13:20:25;11.10;;;9.30;;
51594;SDS011;37677;53.254;6.594;2023-05-10T13:22:51;11.52;;;10.00;;
51594;SDS011;37677;53.254;6.594;2023-05-10T13:25:16;11.35;;;9.52;;
51594;SDS011;37677;53.254;6.594;2023-05-10T13:27:42;10.52;;;9.32;;
51594;SDS011;37677;53.254;6.594;2023-05-10T13:30:08;10.95;;;9.80;;
51594;SDS011;37677;53.254;6.594;2023-05-10T13:32:34;11.85;;;9.48;;
51594;SDS011;37677;53.254;6.594;2023-05-10T13:35:00;9.68;;;8.68;;
51594;SDS011;37677;53.254;6.594;2023-05-10T13:37:28;10.43;;;9.52;;
51594;SDS011;37677;53.254;6.594;2023-05-10T13:39:54;9.93;;;8.93;;
51594;SDS011;37677;53.254;6.594;2023-05-10T13:42:21;9.85;;;8.95;;
51594;SDS011;37677;53.254;6.594;2023-05-10T13:44:48;9.82;;;8.82;;
51594;SDS011;37677;53.254;6.594;2023-05-10T13:47:14;8.35;;;7.22;;
51594;SDS011;37677;53.254;6.594;2023-05-10T13:49:40;8.25;;;7.40;;
51594;SDS011;37677;53.254;6.594;2023-05-10T13:52:05;7.97;;;7.18;;
51594;SDS011;37677;53.254;6.594;2023-05-10T13:54:38;8.02;;;7.22;;
51594;SDS011;37677;53.254;6.594;2023-05-10T13:57:04;8.20;;;7.40;;
51594;SDS011;37677;53.254;6.594;2023-05-10T13:59:30;10.07;;;7.82;;
51594;SDS011;37677;53.254;6.594;2023-05-10T14:01:59;9.05;;;7.80;;
51594;SDS011;37677;53.254;6.594;2023-05-10T14:04:27;8.82;;;7.93;;
51594;SDS011;37677;53.254;6.594;2023-05-10T14:06:53;9.15;;;8.20;;
51594;SDS011;37677;53.254;6.594;2023-05-10T14:09:19;9.80;;;4.72;;
51594;SDS011;37677;53.254;6.594;2023-05-10T14:11:45;7.85;;;6.07;;
51594;SDS011;37677;53.254;6.594;2023-05-10T14:14:11;6.60;;;5.82;;
51594;SDS011;37677;53.254;6.594;2023-05-10T14:16:37;6.93;;;6.20;;
51594;SDS011;37677;53.254;6.594;2023-05-10T14:19:03;9.93;;;8.00;;
51594;SDS011;37677;53.254;6.594;2023-05-10T14:21:29;8.95;;;8.02;;
51594;SDS011;37677;53.254;6.594;2023-05-10T14:23:55;7.15;;;6.50;;
51594;SDS011;37677;53.254;6.594;2023-05-10T14:26:22;8.00;;;7.20;;
51594;SDS011;37677;53.254;6.594;2023-05-10T14:28:47;8.68;;;7.78;;
51594;SDS011;37677;53.254;6.594;2023-05-10T14:31:13;9.40;;;8.50;;
51594;SDS011;37677;53.254;6.594;2023-05-10T14:33:39;9.90;;;8.90;;
51594;SDS011;37677;53.254;6.594;2023-05-10T14:36:05;10.30;;;8.82;;
51594;SDS011;37677;53.254;6.594;2023-05-10T14:38:31;10.07;;;9.18;;
51594;SDS011;37677;53.254;6.594;2023-05-10T14:40:57;10.05;;;9.13;;
51594;SDS011;37677;53.254;6.594;2023-05-10T14:43:23;10.98;;;9.98;;
51594;SDS011;37677;53.254;6.594;2023-05-10T14:45:49;12.20;;;9.90;;
51594;SDS011;37677;53.254;6.594;2023-05-10T14:48:14;10.18;;;9.18;;
51594;SDS011;37677;53.254;6.594;2023-05-10T14:50:42;11.93;;;10.73;;
51594;SDS011;37677;53.254;6.594;2023-05-10T14:53:08;13.10;;;11.90;;
51594;SDS011;37677;53.254;6.594;2023-05-10T14:55:34;12.93;;;11.77;;
51594;SDS011;37677;53.254;6.594;2023-05-10T14:58:01;14.75;;;13.35;;
51594;SDS011;37677;53.254;6.594;2023-05-10T15:00:28;15.88;;;14.25;;
51594;SDS011;37677;53.254;6.594;2023-05-10T15:02:54;16.40;;;14.90;;
51594;SDS011;37677;53.254;6.594;2023-05-10T15:05:20;15.07;;;13.65;;